Waynesfield, Ohio
Current Conditions -  °F | °C
As of 7:53 PM on Saturday 25 Oct 2014 (Local Time) from KAOH Reporting Station
Clear Clear  
Wind Chill: 17°   Ceiling: Unl
Heat Index: 17°   Visibility: 10mi
Dew Point:   Wind: 10mph
Humidity: 56%   Direction: 280°W
Pressure: 29.86"   Gusts: NA
Location:  40.6°N, 83.98°W
Report Text: KAOH 252353Z AUTO 28009KT 10SM CLR 17/08 A2986 RMK AO2 SLP111 T01670078 10233 20156 51007
Loading
Personal Weather Stations






























Interactive Weather Map
Tropical Storm Tracking
New forecast layout! Learn more

10-Day Weather Forecast

Advertisements
Track Severe Weather on mobile